Aviation Digital Data Service (ADDS)

Output produced by METARs form (1748 UTC 21 November 2018)
found at http://www.aviationweather.gov/metar/data/
 
METAR text: ROYN 211700Z AUTO 36023KT 9999 SCT013 BKN020 BKN025 //////TCU 24/21 Q1017
Conditions at: ROYN (YONAGUNI AIRPORT, JP) observed 1700 UTC 21 November 2018
Temperature: 24.0°C (75°F)
Dewpoint: 21.0°C (70°F) [RH = 83%]
Pressure (altimeter): 30.03 inches Hg (1017.0 mb)
Winds: from the N (360 degrees) at 26 MPH (23 knots; 11.8 m/s)
Visibility: 6 or more miles (10+ km)
Ceiling: 2000 feet AGL
Clouds: scattered clouds at 1300 feet AGL
broken clouds at 2000 feet AGL
broken clouds at 2500 feet AGL
Weather: no significant weather observed at this time